Time;durP1;ratioP1;P1;durP2;ratioP2;P2;SDS_P1;SDS_P2;PMS_P1;PMS_P2;Temp;Humidity;BMP_temperature;BMP_pressure;BME280_temperature;BME280_humidity;BME280_pressure;Samples;Min_cycle;Max_cycle;Signal;HPM_P1;HPM_P2
2022/05/13 00:01:34;;;;;;;2.60;1.43;;;20.50;76.90;;;21.20;nan;100855.91;5044386;28;21254;-64
2022/05/13 00:04:02;;;;;;;4.93;1.93;;;20.50;77.10;;;21.18;nan;100865.84;5025663;28;20878;-64
2022/05/13 00:06:29;;;;;;;1.97;1.80;;;20.40;77.30;;;21.13;nan;100854.94;5034603;28;21186;-64
2022/05/13 00:08:56;;;;;;;2.40;2.20;;;20.40;77.70;;;21.09;nan;100860.75;5051901;28;20627;-64
2022/05/13 00:11:23;;;;;;;1.60;1.50;;;20.30;77.90;;;21.09;nan;100855.44;5053157;28;20670;-64
2022/05/13 00:13:50;;;;;;;1.87;1.57;;;20.30;78.20;;;21.00;nan;100859.91;5046530;28;20638;-65
2022/05/13 00:16:17;;;;;;;1.90;1.80;;;20.30;78.40;;;20.94;nan;100857.13;5072223;28;20614;-64
2022/05/13 00:18:44;;;;;;;1.70;1.60;;;20.20;78.90;;;20.91;nan;100863.63;5040272;28;20663;-64
2022/05/13 00:21:11;;;;;;;1.43;1.43;;;20.20;79.20;;;20.91;nan;100860.13;5054235;28;20700;-64
2022/05/13 00:23:39;;;;;;;2.03;1.57;;;20.20;79.70;;;20.84;nan;100852.03;5053947;28;20631;-64
2022/05/13 00:26:06;;;;;;;2.13;1.97;;;20.10;79.80;;;20.85;nan;100857.16;5052955;28;20635;-64
2022/05/13 00:28:33;;;;;;;2.93;1.90;;;20.10;80.00;;;20.85;nan;100854.50;5034658;28;20632;-64
2022/05/13 00:31:03;;;;;;;2.00;1.63;;;20.10;80.10;;;20.87;nan;100854.31;5055951;28;20662;-64
2022/05/13 00:33:32;;;;;;;2.70;2.00;;;20.10;80.50;;;20.84;nan;100849.38;5055438;28;20627;-64
2022/05/13 00:35:59;;;;;;;4.17;1.73;;;20.10;80.70;;;20.82;nan;100854.03;5035184;28;20983;-65
2022/05/13 00:38:26;;;;;;;1.73;1.40;;;20.10;81.10;;;20.75;nan;100853.03;5069050;28;21234;-64
2022/05/13 00:40:53;;;;;;;1.83;1.73;;;20.00;81.40;;;20.76;nan;100855.53;5063621;28;20997;-64
2022/05/13 00:43:51;;;;;;;1.80;1.70;;;20.00;81.80;;;20.78;nan;100858.81;5041380;28;20766;-64
2022/05/13 00:46:20;;;;;;;1.70;1.50;;;20.10;82.00;;;20.80;nan;100858.69;5071809;28;20637;-64
2022/05/13 00:48:47;;;;;;;1.90;1.63;;;20.10;82.20;;;20.77;nan;100856.34;5062043;28;21192;-64
2022/05/13 00:51:37;;;;;;;1.53;1.43;;;20.00;82.30;;;20.65;nan;100858.56;5051679;28;20659;-64
2022/05/13 00:54:07;;;;;;;1.80;1.70;;;20.00;82.70;;;20.64;nan;100858.72;5053213;28;20623;-64
2022/05/13 00:56:35;;;;;;;2.40;1.90;;;19.90;83.00;;;20.64;nan;100845.44;5071028;28;20607;-64
2022/05/13 00:59:06;;;;;;;3.37;1.90;;;19.90;83.40;;;20.68;nan;100852.91;5066476;28;20674;-64
2022/05/13 01:01:33;;;;;;;2.50;1.50;;;19.90;83.50;;;20.63;nan;100854.41;5047906;28;20667;-64
2022/05/13 01:04:08;;;;;;;4.20;1.70;;;19.90;83.70;;;20.57;nan;100853.25;5051641;28;21007;-64
2022/05/13 01:06:35;;;;;;;3.50;1.83;;;19.80;84.00;;;20.61;nan;100856.41;5070303;28;20629;-64
2022/05/13 01:09:03;;;;;;;5.60;1.40;;;19.90;84.10;;;20.64;nan;100856.06;5072280;28;21190;-64
2022/05/13 01:11:33;;;;;;;1.83;1.70;;;19.90;84.10;;;20.64;nan;100856.88;5085751;23;20675;-69
2022/05/13 01:14:13;;;;;;;1.63;1.53;;;19.90;84.00;;;20.61;nan;100851.09;5030230;28;20624;-70
2022/05/13 01:19:26;;;;;;;3.03;1.47;;;19.90;84.70;;;20.61;nan;100853.75;5022962;28;20672;-65
2022/05/13 01:21:53;;;;;;;3.47;1.83;;;19.90;84.60;;;20.67;nan;100858.38;5017556;28;20652;-69
2022/05/13 01:24:21;;;;;;;1.90;1.80;;;20.00;84.60;;;20.52;nan;100852.13;5034664;28;20631;-70
2022/05/13 01:26:48;;;;;;;5.17;1.87;;;19.80;85.00;;;20.43;nan;100850.47;5050579;28;20623;-70
2022/05/13 01:29:15;;;;;;;2.20;1.90;;;19.70;85.80;;;20.39;nan;100846.50;5050117;28;21192;-70
2022/05/13 01:31:45;;;;;;;1.60;1.50;;;19.70;86.10;;;20.37;nan;100849.31;5032578;28;20663;-70
2022/05/13 01:34:14;;;;;;;1.43;1.33;;;19.60;86.50;;;20.37;nan;100851.16;5049593;28;20624;-70
2022/05/13 01:36:42;;;;;;;2.27;1.73;;;19.60;86.90;;;20.29;nan;100853.81;5049992;28;20627;-70
2022/05/13 01:39:09;;;;;;;2.00;1.90;;;19.60;87.80;;;20.13;nan;100854.59;5049288;28;20655;-69
2022/05/13 01:41:36;;;;;;;1.70;1.60;;;19.40;88.50;;;20.06;nan;100851.78;5048948;28;20655;-70
2022/05/13 01:44:04;;;;;;;2.50;1.50;;;19.30;89.10;;;20.04;nan;100850.31;5050617;28;20623;-70
2022/05/13 01:46:32;;;;;;;1.70;1.60;;;19.30;89.70;;;20.00;nan;100839.22;5050649;28;20635;-69
2022/05/13 01:49:00;;;;;;;2.03;1.40;;;19.30;90.10;;;20.01;nan;100848.00;5050934;28;20643;-70
2022/05/13 01:51:27;;;;;;;13.30;2.03;;;19.30;90.30;;;20.00;nan;100846.31;5031626;28;20635;-70
2022/05/13 01:53:54;;;;;;;1.57;1.47;;;19.30;90.50;;;19.99;nan;100848.19;5050436;28;20627;-69
2022/05/13 01:56:21;;;;;;;2.00;1.90;;;19.30;90.70;;;19.80;nan;100845.84;5040944;28;20788;-68
2022/05/13 01:58:48;;;;;;;1.80;1.70;;;19.10;91.20;;;19.82;nan;100858.91;5051054;28;21244;-69
2022/05/13 02:01:15;;;;;;;2.37;1.87;;;19.10;91.40;;;19.72;nan;100859.06;5031790;28;20635;-70
2022/05/13 02:03:45;;;;;;;3.10;2.03;;;19.00;91.70;;;19.68;nan;100857.72;5050135;28;20999;-69
2022/05/13 02:06:22;;;;;;;1.77;1.67;;;18.90;91.90;;;19.65;nan;100849.28;5050031;28;20631;-70
2022/05/13 02:08:55;;;;;;;1.90;1.80;;;18.90;92.30;;;19.62;nan;100858.38;5047555;28;20632;-69
2022/05/13 02:11:24;;;;;;;2.93;1.60;;;18.90;92.70;;;19.61;nan;100848.81;5050551;28;20623;-70
2022/05/13 02:13:52;;;;;;;1.63;1.53;;;18.90;93.00;;;19.64;nan;100844.97;5037196;28;20903;-69
2022/05/13 02:16:20;;;;;;;4.70;1.50;;;18.90;93.10;;;19.58;nan;100841.19;5030428;28;20624;-67
2022/05/13 02:18:48;;;;;;;5.63;1.73;;;18.90;93.20;;;19.56;nan;100853.75;5012884;28;20660;-68
2022/05/13 02:21:16;;;;;;;7.90;2.57;;;18.80;93.40;;;19.50;nan;100849.09;5031190;28;20662;-69
2022/05/13 02:23:43;;;;;;;1.97;1.83;;;18.80;93.60;;;19.47;nan;100843.28;5048171;28;20620;-69
2022/05/13 02:26:13;;;;;;;2.90;1.97;;;18.80;93.80;;;19.40;nan;100845.75;5049761;28;21191;-70
2022/05/13 02:28:41;;;;;;;2.30;2.10;;;18.70;94.20;;;19.33;nan;100852.66;5031093;28;21248;-69
2022/05/13 02:31:08;;;;;;;3.27;1.87;;;18.60;94.40;;;19.27;nan;100856.75;5049650;28;21314;-69
2022/05/13 02:33:36;;;;;;;3.40;2.00;;;18.60;94.50;;;19.26;nan;100864.88;5047579;28;20746;-69
2022/05/13 02:36:05;;;;;;;2.10;2.00;;;18.60;94.70;;;19.17;nan;100861.38;5049888;28;21001;-69
2022/05/13 02:38:32;;;;;;;7.80;2.50;;;18.50;95.10;;;19.18;nan;100862.22;5048717;28;20663;-69
2022/05/13 02:41:12;;;;;;;1.87;1.77;;;18.50;95.10;;;19.23;nan;100865.19;5049872;28;20673;-69
2022/05/13 02:43:48;;;;;;;2.00;1.90;;;18.50;95.30;;;19.14;nan;100866.16;5049355;28;20634;-69
2022/05/13 02:46:29;;;;;;;2.60;2.10;;;18.50;95.70;;;19.03;nan;100866.44;5049332;28;20619;-69
2022/05/13 02:48:56;;;;;;;4.93;2.03;;;18.30;96.10;;;18.91;nan;100857.94;5045894;28;20639;-70
2022/05/13 02:51:24;;;;;;;1.97;1.70;;;18.30;96.60;;;18.67;nan;100854.38;5032778;28;21206;-69
2022/05/13 02:53:52;;;;;;;1.67;1.57;;;18.00;97.60;;;18.66;nan;100852.69;5038848;28;20639;-70
2022/05/13 02:56:19;;;;;;;2.67;1.63;;;18.00;98.00;;;18.61;nan;100862.91;5031274;28;21219;-67
2022/05/13 02:58:47;;;;;;;2.80;1.90;;;17.90;98.50;;;18.63;nan;100856.50;5052146;28;20670;-69
2022/05/13 03:01:17;;;;;;;2.40;2.20;;;17.90;98.60;;;18.59;nan;100855.16;5053732;28;20968;-70
2022/05/13 03:03:47;;;;;;;4.97;2.07;;;17.90;99.00;;;18.44;nan;100852.22;5033688;28;20635;-69
2022/05/13 03:06:15;;;;;;;1.97;1.87;;;17.80;99.40;;;18.43;nan;100853.19;5035185;28;21014;-70
2022/05/13 03:08:42;;;;;;;1.80;1.70;;;17.80;99.80;;;18.46;nan;100863.47;5052975;28;20646;-69
2022/05/13 03:11:10;;;;;;;2.20;1.60;;;17.80;99.90;;;18.44;nan;100868.09;5052617;28;20651;-69
2022/05/13 03:13:37;;;;;;;4.57;2.27;;;17.80;99.90;;;18.42;nan;100863.94;5048690;28;20647;-68
2022/05/13 03:16:14;;;;;;;3.23;2.23;;;17.80;99.90;;;18.48;nan;100855.41;5034719;28;20639;-69
2022/05/13 03:18:41;;;;;;;3.10;1.97;;;17.80;99.90;;;18.27;nan;100868.91;5035851;28;20666;-69
2022/05/13 03:21:09;;;;;;;3.90;1.93;;;17.70;99.90;;;18.25;nan;100864.81;5053962;28;20635;-69
2022/05/13 03:23:37;;;;;;;6.60;2.23;;;17.60;99.90;;;18.23;nan;100872.84;5034057;28;20635;-69
2022/05/13 03:26:05;;;;;;;2.17;2.07;;;17.60;99.90;;;18.16;nan;100871.00;5053492;28;20630;-69
2022/05/13 03:28:32;;;;;;;1.90;1.80;;;17.50;99.90;;;18.13;nan;100861.56;5052933;28;20620;-68
2022/05/13 03:30:59;;;;;;;3.40;2.30;;;17.50;99.90;;;18.05;nan;100864.16;5051690;28;20646;-68
2022/05/13 03:33:27;;;;;;;2.40;2.20;;;17.40;99.90;;;18.05;nan;100865.94;5034985;28;20658;-68
2022/05/13 03:35:54;;;;;;;3.60;2.57;;;17.40;99.90;;;17.89;nan;100874.53;5051655;28;20642;-69
2022/05/13 03:38:21;;;;;;;2.17;2.00;;;17.20;99.90;;;17.86;nan;100871.38;5051676;28;20667;-67
2022/05/13 03:40:48;;;;;;;2.90;1.83;;;17.20;99.90;;;17.78;nan;100880.88;5051559;28;20693;-70
2022/05/13 03:43:16;;;;;;;4.90;1.80;;;17.10;99.90;;;17.82;nan;100884.06;5047173;28;20659;-66
2022/05/13 03:45:43;;;;;;;2.40;2.20;;;17.20;99.90;;;17.85;nan;100878.47;5017160;28;21077;-69
2022/05/13 03:48:11;;;;;;;5.20;2.23;;;17.20;99.90;;;17.80;nan;100883.38;5051852;28;20681;-67
2022/05/13 03:50:42;;;;;;;2.30;2.10;;;17.20;99.90;;;17.82;nan;100876.16;5047322;28;20648;-69
2022/05/13 03:53:09;;;;;;;5.70;2.43;;;17.20;99.90;;;17.79;nan;100876.44;5051390;28;20667;-69
2022/05/13 03:55:36;;;;;;;3.77;3.13;;;17.20;99.90;;;17.84;nan;100872.34;5052664;28;20623;-69
2022/05/13 03:58:04;;;;;;;2.93;2.13;;;17.20;99.90;;;17.81;nan;100880.59;5052112;28;21219;-69
2022/05/13 04:00:32;;;;;;;2.57;1.90;;;17.20;99.90;;;17.77;nan;100883.69;5018038;28;20654;-68
2022/05/13 04:02:59;;;;;;;1.90;1.80;;;17.10;99.90;;;17.76;nan;100888.13;5051568;28;20684;-69
2022/05/13 04:10:58;;;;;;;1.90;1.80;;;17.20;99.90;;;17.89;nan;100886.94;5037455;28;20615;-70
2022/05/13 04:16:11;;;;;;;2.10;2.00;;;17.30;99.90;;;17.94;nan;100893.41;5032771;28;20635;-69
2022/05/13 04:18:44;;;;;;;1.87;1.80;;;17.30;99.90;;;17.92;nan;100895.38;5042021;28;20985;-69
2022/05/13 04:21:18;;;;;;;1.80;1.70;;;17.30;99.90;;;17.94;nan;100900.50;5031788;28;20620;-69
2022/05/13 04:23:48;;;;;;;2.57;2.33;;;17.30;99.90;;;17.92;nan;100908.56;5038854;28;20635;-70
2022/05/13 04:26:17;;;;;;;7.03;2.20;;;17.30;99.90;;;17.90;nan;100913.19;5051973;28;20616;-69
2022/05/13 04:28:48;;;;;;;2.40;2.17;;;17.30;99.90;;;17.96;nan;100895.88;5052120;28;20632;-69
2022/05/13 04:31:22;;;;;;;2.07;1.97;;;17.30;99.90;;;18.00;nan;100897.25;5035426;28;20634;-68
2022/05/13 04:33:50;;;;;;;5.10;2.17;;;17.30;99.90;;;18.02;nan;100904.03;5051672;28;20674;-70
2022/05/13 04:36:18;;;;;;;2.20;2.10;;;17.40;99.90;;;18.01;nan;100905.03;5052583;28;20635;-69
2022/05/13 04:38:45;;;;;;;2.70;2.23;;;17.40;99.90;;;18.16;nan;100910.59;5032855;28;20675;-69
2022/05/13 04:43:59;;;;;;;2.83;1.97;;;17.50;99.90;;;18.34;nan;100912.25;5032833;28;21026;-69
2022/05/13 04:46:27;;;;;;;4.87;2.37;;;17.70;99.90;;;18.56;nan;100906.50;5050733;28;21212;-68
2022/05/13 04:48:54;;;;;;;3.40;2.40;;;18.00;99.90;;;18.79;nan;100917.38;5050785;28;20998;-69
2022/05/13 04:51:21;;;;;;;3.73;2.37;;;18.30;99.80;;;19.00;nan;100914.34;5033842;28;20640;-69
2022/05/13 04:53:52;;;;;;;3.53;2.70;;;18.50;99.30;;;19.18;nan;100913.31;5031564;28;20612;-68
2022/05/13 04:56:22;;;;;;;3.30;2.40;;;18.70;98.80;;;19.39;nan;100912.06;5046478;28;20639;-67
2022/05/13 04:58:49;;;;;;;4.43;2.40;;;18.90;98.30;;;19.63;nan;100913.00;5032764;28;21227;-69
2022/05/13 05:01:19;;;;;;;3.30;2.30;;;19.20;97.60;;;19.82;nan;100910.06;5047008;28;20637;-69
2022/05/13 05:03:47;;;;;;;6.77;2.20;;;19.40;96.90;;;20.00;nan;100923.97;5043992;28;20630;-68
2022/05/13 05:06:16;;;;;;;3.33;2.50;;;19.60;96.50;;;20.19;nan;100925.47;5050627;28;20615;-70
2022/05/13 05:08:44;;;;;;;2.63;2.20;;;19.70;95.90;;;20.29;nan;100920.91;5032647;28;20640;-68
2022/05/13 05:11:14;;;;;;;3.33;2.20;;;19.80;95.40;;;20.41;nan;100934.63;5052233;28;20627;-69
2022/05/13 05:13:46;;;;;;;2.97;2.30;;;19.90;95.00;;;20.58;nan;100936.25;5014193;28;20644;-67
2022/05/13 05:16:15;;;;;;;3.40;2.30;;;20.10;94.60;;;20.53;nan;100926.16;5029685;28;20604;-69
2022/05/13 05:18:43;;;;;;;2.70;2.10;;;20.00;94.30;;;20.67;nan;100935.28;5032030;28;21232;-69
2022/05/13 05:21:11;;;;;;;5.20;2.63;;;20.20;94.20;;;20.82;nan;100941.53;5049241;28;20755;-68
2022/05/13 05:23:42;;;;;;;2.23;2.13;;;20.30;93.90;;;20.91;nan;100950.31;5031052;28;20628;-70
2022/05/13 05:26:11;;;;;;;2.63;2.30;;;20.40;93.60;;;20.89;nan;100945.19;5051715;28;20699;-69
2022/05/13 05:28:39;;;;;;;2.53;2.40;;;20.40;93.00;;;20.88;nan;100946.16;5032285;28;20639;-69
2022/05/13 05:31:07;;;;;;;2.87;2.67;;;20.30;93.00;;;20.99;nan;100947.63;5032910;28;21160;-69
2022/05/13 05:33:35;;;;;;;3.27;2.83;;;20.40;93.10;;;21.33;nan;100946.41;5049702;28;20742;-68
2022/05/13 05:36:02;;;;;;;3.60;2.40;;;20.80;92.30;;;21.69;nan;100954.69;5032688;28;20631;-69
2022/05/13 05:38:29;;;;;;;5.73;2.60;;;21.20;91.60;;;21.98;nan;100964.66;5044527;28;20631;-69
2022/05/13 05:40:59;;;;;;;4.93;2.53;;;21.50;90.70;;;22.38;nan;100970.53;5029664;28;20699;-69
2022/05/13 05:43:27;;;;;;;4.30;2.60;;;21.90;90.00;;;22.65;nan;100973.66;5043979;28;20660;-69
2022/05/13 05:45:54;;;;;;;5.50;2.80;;;22.20;88.20;;;22.75;nan;100977.72;5029971;28;21185;-68
2022/05/13 05:48:22;;;;;;;3.67;2.83;;;22.30;87.40;;;22.70;nan;100980.09;5038155;28;20694;-66
2022/05/13 05:50:51;;;;;;;7.67;3.27;;;22.20;87.00;;;22.47;nan;100984.59;5032238;28;20644;-69
2022/05/13 05:57:13;;;;;;;4.60;2.47;;;22.00;88.00;;;22.37;nan;100992.81;5050157;28;20702;-69
2022/05/13 05:59:00;;;;;;;3.80;2.63;;;21.70;88.80;;;22.13;nan;100997.47;5049363;28;20712;-68
2022/05/13 06:01:28;;;;;;;3.30;2.47;;;21.50;90.00;;;22.14;nan;101009.75;5049310;28;20640;-70
2022/05/13 06:03:55;;;;;;;5.03;2.77;;;21.50;90.30;;;22.22;nan;101010.53;5046972;28;20631;-69
2022/05/13 06:06:23;;;;;;;5.63;2.50;;;21.60;89.60;;;22.16;nan;101007.75;5032770;28;21208;-69
2022/05/13 06:08:54;;;;;;;5.07;2.70;;;21.60;88.60;;;22.10;nan;101008.47;5046896;28;20994;-69
2022/05/13 06:11:25;;;;;;;3.37;2.50;;;21.50;88.00;;;22.56;nan;101012.78;5049092;28;20631;-69
2022/05/13 06:13:58;;;;;;;3.60;2.07;;;21.90;87.30;;;23.83;nan;101013.47;5049421;28;20639;-67
2022/05/13 06:16:27;;;;;;;4.93;2.43;;;23.30;83.00;;;25.30;nan;101019.78;5048445;28;21006;-69
2022/05/13 06:18:54;;;;;;;3.93;2.40;;;24.90;77.90;;;26.62;nan;101019.28;5040680;28;20685;-68
2022/05/13 06:21:21;;;;;;;5.80;2.60;;;26.40;72.60;;;26.98;nan;101024.25;5045953;28;21196;-69
2022/05/13 06:23:48;;;;;;;4.70;2.17;;;26.80;69.50;;;28.19;nan;101035.03;5049457;28;20627;-69
2022/05/13 06:26:15;;;;;;;2.07;1.93;;;27.90;66.80;;;29.32;nan;101033.97;5030981;28;20631;-69
2022/05/13 06:28:42;;;;;;;4.60;1.70;;;29.00;62.90;;;30.11;nan;101045.47;5044481;28;20635;-69
2022/05/13 06:31:10;;;;;;;3.30;1.80;;;30.00;60.00;;;29.95;nan;101043.38;5049696;28;20627;-70
2022/05/13 06:33:37;;;;;;;3.93;1.90;;;29.80;58.20;;;29.55;nan;101045.72;5050234;28;20627;-69
2022/05/13 06:36:05;;;;;;;3.23;2.40;;;29.20;57.40;;;30.05;nan;101059.81;5047536;28;20639;-69
2022/05/13 06:38:32;;;;;;;1.87;1.60;;;29.50;57.00;;;29.91;nan;101052.97;5049122;28;20635;-70
2022/05/13 06:40:59;;;;;;;3.43;2.03;;;29.50;55.50;;;29.04;nan;101055.91;5049949;28;20674;-68
2022/05/13 06:43:27;;;;;;;2.10;1.90;;;28.60;55.90;;;27.61;nan;101051.16;5049482;28;20646;-69
2022/05/13 06:45:56;;;;;;;1.43;1.33;;;27.40;56.70;;;26.80;nan;101049.81;5049859;28;21072;-68
2022/05/13 06:48:25;;;;;;;2.13;1.63;;;26.30;58.80;;;26.06;nan;101046.31;5049128;28;21038;-65
2022/05/13 06:50:52;;;;;;;1.70;1.60;;;25.50;59.80;;;25.11;nan;101048.03;5054786;28;20734;-70
2022/05/13 06:53:21;;;;;;;1.60;1.50;;;24.80;61.30;;;24.44;nan;101050.31;5068774;28;20658;-70
2022/05/13 06:55:49;;;;;;;2.40;1.70;;;23.90;62.20;;;23.99;nan;101047.09;5068907;28;20632;-70
2022/05/13 06:58:17;;;;;;;1.60;1.60;;;23.50;61.60;;;23.66;nan;101049.34;5067957;28;20619;-71
2022/05/13 07:00:45;;;;;;;3.10;1.50;;;23.10;62.90;;;23.36;nan;101045.84;5062296;28;20671;-70
2022/05/13 07:03:15;;;;;;;2.00;1.77;;;22.80;63.70;;;23.37;nan;101049.34;5060166;28;20666;-70
2022/05/13 07:05:42;;;;;;;3.60;1.57;;;22.80;63.90;;;23.79;nan;101052.16;5043922;28;20632;-71
2022/05/13 07:08:11;;;;;;;3.33;1.57;;;23.10;64.10;;;26.39;nan;101059.78;5052844;28;20769;-69
2022/05/13 07:10:39;;;;;;;1.73;1.60;;;25.70;61.50;;;29.70;nan;101069.53;5049806;28;20622;-69
2022/05/13 07:13:12;;;;;;;2.00;1.70;;;29.20;56.20;;;32.35;nan;101075.50;5075974;23;21289;-64
2022/05/13 07:15:40;;;;;;;3.00;1.70;;;32.30;51.30;;;33.40;nan;101079.13;5069957;28;20607;-65
2022/05/13 07:18:07;;;;;;;1.60;1.40;;;33.30;48.50;;;33.65;nan;101084.13;5049268;28;20619;-67
2022/05/13 07:20:35;;;;;;;3.70;1.83;;;33.30;47.80;;;34.52;nan;101083.00;5046944;28;20667;-65
2022/05/13 07:23:02;;;;;;;1.90;1.60;;;34.30;46.10;;;36.12;nan;101084.31;5049893;28;20658;-66
2022/05/13 07:25:31;;;;;;;2.93;1.67;;;35.90;44.50;;;36.62;nan;101086.31;5049434;28;20619;-66
2022/05/13 07:27:59;;;;;;;2.07;1.87;;;36.90;42.80;;;35.74;nan;101097.19;5050753;28;21002;-66
2022/05/13 07:30:26;;;;;;;1.83;1.73;;;35.60;42.70;;;36.31;nan;101097.09;5066196;28;21045;-66
2022/05/13 07:32:53;;;;;;;2.17;1.90;;;36.00;42.40;;;36.61;nan;101087.41;5069313;28;20646;-66
2022/05/13 07:35:20;;;;;;;2.60;1.90;;;36.30;41.50;;;36.35;nan;101087.34;5067779;28;20638;-65
2022/05/13 07:37:47;;;;;;;2.80;1.80;;;36.10;41.50;;;35.50;nan;101084.31;5059702;28;20646;-65
2022/05/13 07:43:00;;;;;;;5.57;2.23;;;36.00;41.30;;;37.18;nan;101105.09;5072355;28;20669;-66
2022/05/13 07:45:27;;;;;;;4.47;1.87;;;37.00;40.60;;;37.19;nan;101103.16;5073804;28;20622;-66
2022/05/13 07:47:55;;;;;;;7.10;2.13;;;37.00;40.30;;;36.84;nan;101100.47;5071957;28;20687;-66
2022/05/13 07:50:22;;;;;;;4.90;2.03;;;37.00;39.50;;;35.42;nan;101093.72;5072095;28;20614;-66
2022/05/13 07:52:51;;;;;;;2.77;1.57;;;35.30;40.10;;;34.08;nan;101103.91;5052475;28;20651;-63
2022/05/13 07:55:18;;;;;;;1.87;1.40;;;33.80;41.10;;;32.47;nan;101093.31;5067271;28;20635;-66
2022/05/13 07:57:47;;;;;;;1.40;1.40;;;32.10;42.30;;;30.98;nan;101084.38;5072879;28;20634;-66
2022/05/13 08:00:26;;;;;;;1.80;1.50;;;30.60;43.80;;;30.11;nan;101083.13;5067746;28;21231;-63
2022/05/13 08:03:01;;;;;;;2.87;1.53;;;29.60;45.90;;;29.01;nan;101081.34;5072027;28;20649;-66
2022/05/13 08:05:37;;;;;;;1.50;1.40;;;28.50;46.30;;;30.27;nan;101076.28;5060275;28;20635;-65
2022/05/13 08:08:36;;;;;;;3.73;1.67;;;29.70;45.90;;;33.57;nan;101085.34;5050206;28;20630;-66
2022/05/13 08:11:06;;;;;;;5.80;1.60;;;32.90;43.20;;;34.16;nan;101078.28;5054494;28;20720;-66
2022/05/13 08:13:34;;;;;;;6.93;1.77;;;34.20;41.30;;;34.89;nan;101081.13;5070875;28;20666;-65
2022/05/13 08:16:06;;;;;;;4.30;1.80;;;35.00;40.90;;;36.09;nan;101090.28;5072256;28;20626;-66
2022/05/13 08:18:34;;;;;;;4.70;2.20;;;36.00;40.30;;;36.34;nan;101091.16;5054562;28;21186;-66
2022/05/13 08:21:01;;;;;;;1.70;1.60;;;36.70;39.50;;;37.83;nan;101087.78;5055205;28;20657;-63
2022/05/13 08:23:29;;;;;;;4.00;1.70;;;37.80;39.20;;;38.08;nan;101089.53;5072385;28;20660;-66
2022/05/13 08:25:56;;;;;;;2.03;1.83;;;38.20;38.10;;;39.01;nan;101092.19;5071756;28;20619;-67
2022/05/13 08:28:24;;;;;;;3.27;1.90;;;38.90;37.90;;;39.04;nan;101086.97;5072609;28;20633;-66
2022/05/13 08:30:52;;;;;;;5.60;1.50;;;39.30;37.10;;;37.54;nan;101078.63;5070156;28;21186;-66
2022/05/13 08:33:19;;;;;;;1.77;1.57;;;37.30;38.00;;;37.71;nan;101079.09;5071488;28;20651;-66
2022/05/13 08:35:51;;;;;;;2.30;1.53;;;37.40;38.10;;;38.52;nan;101084.13;5062598;28;20630;-66
2022/05/13 08:38:23;;;;;;;1.87;1.50;;;38.30;37.40;;;38.21;nan;101080.75;5060121;28;20631;-66
2022/05/13 08:40:50;;;;;;;2.13;1.70;;;37.90;37.50;;;38.80;nan;101075.19;5071422;28;20642;-66
2022/05/13 08:43:35;;;;;;;3.47;1.77;;;38.50;37.60;;;39.72;nan;101084.09;5066244;28;20655;-66
2022/05/13 08:46:33;;;;;;;4.87;1.60;;;39.70;36.50;;;39.67;nan;101071.31;5052853;28;20634;-66
2022/05/13 08:49:19;;;;;;;3.30;1.60;;;39.40;36.60;;;41.08;nan;101077.38;5050733;28;21242;-66
2022/05/13 08:55:24;;;;;;;2.27;1.87;;;41.00;35.50;;;42.10;nan;101079.69;5063283;28;20639;-66
2022/05/13 08:57:51;;;;;;;2.00;1.80;;;41.90;34.80;;;43.05;nan;101082.00;5069552;28;20619;-66
2022/05/13 09:00:52;;;;;;;1.27;1.17;;;42.90;34.30;;;43.84;nan;101080.88;5071861;28;20662;-66
2022/05/13 09:03:50;;;;;;;1.93;1.43;;;43.70;34.00;;;45.25;nan;101078.97;5061607;28;20660;-66
2022/05/13 09:06:39;;;;;;;1.50;1.40;;;45.10;33.40;;;46.65;nan;101084.78;5059471;28;20626;-66
2022/05/13 09:09:09;;;;;;;5.20;2.13;;;46.50;32.60;;;47.02;nan;101094.00;5070894;28;20622;-67
2022/05/13 09:12:05;;;;;;;1.43;1.33;;;47.10;32.10;;;47.43;nan;101085.53;5053940;28;20642;-65
2022/05/13 09:14:47;;;;;;;2.77;1.50;;;47.30;31.60;;;47.70;nan;101087.56;5050821;28;20964;-64
2022/05/13 09:17:40;;;;;;;1.40;1.30;;;47.90;31.10;;;44.32;nan;101077.97;5051085;28;20603;-67
2022/05/13 09:20:15;;;;;;;2.70;1.50;;;45.00;31.50;;;44.27;nan;101077.34;5063685;28;20678;-67
2022/05/13 09:22:53;;;;;;;2.00;1.53;;;44.10;32.20;;;41.72;nan;101076.41;5051631;28;20652;-67
2022/05/13 09:26:08;;;;;;;2.17;1.50;;;41.60;32.70;;;38.22;nan;101071.50;5050146;28;20646;-66
2022/05/13 09:28:37;;;;;;;2.57;1.67;;;38.20;34.40;;;38.76;nan;101068.69;5048703;28;21003;-66
2022/05/13 09:31:20;;;;;;;5.37;2.00;;;38.00;35.30;;;41.47;nan;101077.69;5049934;28;21156;-66
2022/05/13 09:34:36;;;;;;;3.00;2.80;;;40.90;34.30;;;44.12;nan;101080.59;5052282;28;20670;-64
2022/05/13 09:37:12;;;;;;;1.43;1.37;;;43.60;32.70;;;45.35;nan;101075.84;5065671;28;20626;-66
2022/05/13 09:39:44;;;;;;;1.57;1.47;;;45.10;31.90;;;46.27;nan;101076.69;5051991;28;20631;-66
2022/05/13 09:42:33;;;;;;;2.33;1.60;;;46.20;31.50;;;47.64;nan;101075.13;5050389;28;20647;-66
2022/05/13 09:45:22;;;;;;;3.70;1.73;;;47.50;30.80;;;48.12;nan;101079.78;5056482;28;20697;-66
2022/05/13 09:48:12;;;;;;;1.70;1.60;;;48.10;30.30;;;48.27;nan;101077.06;5051173;28;20710;-66
2022/05/13 09:50:42;;;;;;;1.60;1.50;;;48.40;30.30;;;49.01;nan;101081.06;5065729;28;21199;-66
2022/05/13 09:53:21;;;;;;;1.40;1.30;;;48.90;30.10;;;49.37;nan;101078.00;5071195;28;20678;-66
2022/05/13 09:55:56;;;;;;;1.50;1.50;;;49.30;29.80;;;;;;5070784;28;20625;-66
2022/05/13 09:58:26;;;;;;;1.53;1.53;;;49.60;29.60;;;;;;5060712;28;20626;-66
2022/05/13 10:01:13;;;;;;;2.57;2.33;;;49.00;29.50;;;;;;5056231;28;20671;-66
2022/05/13 10:03:41;;;;;;;4.73;1.63;;;48.10;29.50;;;;;;5052208;28;20665;-66
2022/05/13 10:06:08;;;;;;;2.33;1.37;;;47.20;29.70;;;;;;5066271;28;20661;-67
2022/05/13 10:08:38;;;;;;;1.13;1.13;;;45.70;30.80;;;;;;5067082;28;20690;-66
2022/05/13 10:14:22;;;;;;;2.33;1.30;;;43.40;30.50;;;;;;5033534;28;20651;-66
2022/05/13 10:16:51;;;;;;;2.40;1.40;;;42.30;31.20;;;;;;5050840;28;20620;-66
2022/05/13 10:19:32;;;;;;;2.00;1.63;;;40.70;32.10;;;39.51;nan;101032.41;5069667;28;20725;-66
2022/05/13 10:22:38;;;;;;;1.13;1.13;;;39.20;33.10;;;38.16;nan;101029.03;5066188;28;20752;-66
2022/05/13 10:25:17;;;;;;;1.20;1.20;;;37.70;33.80;;;36.02;nan;101019.09;5061315;28;20634;-66
2022/05/13 10:28:00;;;;;;;1.10;1.00;;;35.50;34.80;;;33.61;nan;101026.97;5068109;28;20638;-66
2022/05/13 10:30:56;;;;;;;3.37;1.20;;;33.00;35.90;;;32.10;nan;101019.13;5050411;28;20643;-66
2022/05/13 10:33:55;;;;;;;3.57;1.50;;;31.60;37.50;;;31.28;nan;101020.38;5047740;28;21232;-65
2022/05/13 10:36:29;;;;;;;1.40;1.30;;;30.50;38.50;;;30.53;nan;101014.84;5059606;28;20626;-65
2022/05/13 10:39:03;;;;;;;1.57;1.20;;;29.60;39.00;;;29.72;nan;101014.47;5065038;28;20742;-66
2022/05/13 10:41:48;;;;;;;1.00;0.90;;;28.90;39.80;;;29.26;nan;101014.16;5048849;28;20664;-66
2022/05/13 10:44:52;;;;;;;1.30;1.20;;;28.40;40.00;;;28.62;nan;101009.19;5051169;28;20684;-66
2022/05/13 10:47:43;;;;;;;1.40;1.10;;;27.80;40.70;;;28.40;nan;101006.00;5070175;28;20630;-66
2022/05/13 10:50:21;;;;;;;2.77;1.60;;;27.50;41.40;;;28.00;nan;101006.47;5065385;28;20641;-65
2022/05/13 10:53:01;;;;;;;2.60;2.13;;;27.20;42.20;;;27.94;nan;101005.41;5070340;28;20657;-64
2022/05/13 10:56:17;;;;;;;2.20;1.60;;;27.10;42.30;;;27.49;nan;101001.09;5052784;28;20666;-66
2022/05/13 10:59:28;;;;;;;1.53;1.43;;;26.80;42.30;;;27.03;nan;101003.84;5026258;28;21052;-65
2022/05/13 11:02:38;;;;;;;1.23;1.00;;;26.20;43.00;;;26.81;nan;100992.53;5066165;28;20654;-65
2022/05/13 11:05:37;;;;;;;1.50;0.90;;;26.00;43.10;;;26.66;nan;100986.53;5068724;28;21175;-65
2022/05/13 11:08:50;;;;;;;1.33;1.23;;;25.90;43.20;;;26.30;nan;100990.66;5058348;28;20654;-67
2022/05/13 11:11:33;;;;;;;1.47;1.20;;;25.50;43.40;;;26.05;nan;100990.34;5060501;28;20626;-65
2022/05/13 11:14:26;;;;;;;1.50;1.40;;;25.30;43.90;;;26.03;nan;100995.06;5067511;28;20662;-66
2022/05/13 11:17:22;;;;;;;1.70;1.20;;;25.20;44.50;;;25.96;nan;100989.72;5054010;28;20647;-66
2022/05/13 11:20:24;;;;;;;1.83;1.70;;;25.30;44.10;;;25.98;nan;100984.97;5054302;28;21012;-65